createdAt,value
2018-05-21T00:00:43.189Z,8.60
2018-05-21T00:03:10.630Z,8.80
2018-05-21T00:05:38.094Z,7.93
2018-05-21T00:08:06.326Z,7.57
2018-05-21T00:10:33.786Z,7.40
2018-05-21T00:13:01.245Z,6.63
2018-05-21T00:15:28.707Z,7.17
2018-05-21T00:17:56.153Z,6.03
2018-05-21T00:20:24.389Z,6.30
2018-05-21T00:22:51.836Z,7.23
2018-05-21T00:25:19.310Z,6.13
2018-05-21T00:27:46.766Z,6.27
2018-05-21T00:30:14.232Z,5.80
2018-05-21T00:32:41.695Z,6.57
2018-05-21T00:35:09.150Z,6.03
2018-05-21T00:37:37.372Z,7.23
2018-05-21T00:40:04.825Z,5.30
2018-05-21T00:42:32.286Z,5.37
2018-05-21T00:44:59.741Z,6.60
2018-05-21T00:47:27.970Z,5.60
2018-05-21T00:49:55.417Z,6.10
2018-05-21T00:52:22.882Z,4.60
2018-05-21T00:55:02.277Z,4.77
2018-05-21T00:57:29.739Z,4.50
2018-05-21T00:59:57.197Z,4.43
2018-05-21T01:02:24.666Z,5.07
2018-05-21T01:04:52.113Z,5.13
2018-05-21T01:07:19.645Z,4.47
2018-05-21T01:09:47.101Z,5.03
2018-05-21T01:12:14.562Z,6.40
2018-05-21T01:14:42.026Z,4.43
2018-05-21T01:17:09.477Z,5.60
2018-05-21T01:19:36.929Z,6.00
2018-05-21T01:22:04.381Z,4.03
2018-05-21T01:24:31.830Z,4.13
2018-05-21T01:26:59.293Z,4.10
2018-05-21T01:29:26.741Z,3.60
2018-05-21T01:31:54.205Z,4.23
2018-05-21T01:34:21.662Z,5.13
2018-05-21T01:36:49.125Z,6.60
2018-05-21T01:39:16.608Z,3.90
2018-05-21T01:41:44.053Z,6.47
2018-05-21T01:44:11.517Z,5.43
2018-05-21T01:46:39.022Z,7.63
2018-05-21T01:49:06.517Z,9.50
2018-05-21T01:51:33.969Z,6.00
2018-05-21T01:54:01.429Z,4.50
2018-05-21T01:56:28.877Z,5.27
2018-05-21T01:58:56.338Z,6.83
2018-05-21T02:01:23.785Z,4.37
2018-05-21T02:03:51.245Z,7.90
2018-05-21T02:06:19.456Z,5.20
2018-05-21T02:08:46.918Z,4.43
2018-05-21T02:11:14.369Z,4.00
2018-05-21T02:13:42.614Z,6.00
2018-05-21T02:16:10.060Z,4.80
2018-05-21T02:18:37.516Z,4.60
2018-05-21T02:21:04.972Z,6.33
2018-05-21T02:23:33.193Z,9.53
2018-05-21T02:26:00.653Z,7.70
2018-05-21T02:28:28.217Z,3.70
2018-05-21T02:30:55.674Z,5.17
2018-05-21T02:33:23.143Z,4.87
2018-05-21T02:35:50.653Z,5.60
2018-05-21T02:38:18.922Z,5.03
2018-05-21T02:40:46.405Z,4.37
2018-05-21T02:43:13.857Z,3.63
2018-05-21T02:45:41.329Z,4.10
2018-05-21T02:48:08.782Z,3.33
2018-05-21T02:50:36.246Z,3.67
2018-05-21T02:53:03.718Z,3.03
2018-05-21T02:55:31.182Z,4.00
2018-05-21T02:57:58.636Z,3.97
2018-05-21T03:00:26.862Z,5.27
2018-05-21T03:02:54.333Z,5.73
2018-05-21T03:05:21.813Z,3.70
2018-05-21T03:07:49.260Z,5.50
2018-05-21T03:10:16.719Z,4.73
2018-05-21T03:12:44.174Z,4.13
2018-05-21T03:15:12.401Z,3.10
2018-05-21T03:17:39.839Z,3.87
2018-05-21T03:20:07.299Z,5.67
2018-05-21T03:22:35.509Z,6.73
2018-05-21T03:25:02.971Z,3.20
2018-05-21T03:27:30.427Z,3.93
2018-05-21T03:29:57.883Z,3.27
2018-05-21T03:32:26.120Z,5.30
2018-05-21T03:34:53.575Z,4.80
2018-05-21T03:37:21.025Z,4.17
2018-05-21T03:39:48.476Z,3.50
2018-05-21T03:42:16.693Z,3.60
2018-05-21T03:44:44.145Z,4.87
2018-05-21T03:47:11.589Z,4.63
2018-05-21T03:49:39.037Z,3.37
2018-05-21T03:52:06.508Z,4.50
2018-05-21T03:54:33.949Z,5.43
2018-05-21T03:57:01.451Z,7.30
2018-05-21T03:59:40.683Z,4.73
2018-05-21T04:02:20.081Z,3.50
2018-05-21T04:04:47.525Z,4.20
2018-05-21T04:07:16.531Z,4.97
2018-05-21T04:09:44.748Z,5.80
2018-05-21T04:12:12.198Z,3.67
2018-05-21T04:14:40.412Z,4.03
2018-05-21T04:17:07.863Z,4.83
2018-05-21T04:19:36.081Z,4.57
2018-05-21T04:22:03.529Z,4.67
2018-05-21T04:24:30.973Z,7.77
2018-05-21T04:26:59.191Z,3.80
2018-05-21T04:29:26.636Z,3.67
2018-05-21T04:31:54.864Z,6.53
2018-05-21T04:34:22.305Z,4.40
2018-05-21T04:36:49.769Z,6.37
2018-05-21T04:39:17.211Z,5.17
2018-05-21T04:41:44.669Z,3.73
2018-05-21T04:44:13.629Z,3.70
2018-05-21T04:46:41.093Z,4.50
2018-05-21T04:49:08.536Z,5.57
2018-05-21T04:51:36.800Z,4.10
2018-05-21T04:54:04.232Z,4.20
2018-05-21T04:56:31.685Z,4.47
2018-05-21T04:58:59.126Z,4.90
2018-05-21T05:01:27.349Z,4.87
2018-05-21T05:03:54.803Z,3.70
2018-05-21T05:06:22.244Z,4.13
2018-05-21T05:08:50.474Z,5.10
2018-05-21T05:11:17.920Z,4.93
2018-05-21T05:13:45.396Z,4.73
2018-05-21T05:16:13.592Z,5.30
2018-05-21T05:18:41.074Z,4.80
2018-05-21T05:21:08.569Z,4.10
2018-05-21T05:23:36.825Z,4.20
2018-05-21T05:26:04.273Z,4.70
2018-05-21T05:28:31.835Z,4.53
2018-05-21T05:31:00.142Z,4.47
2018-05-21T05:33:28.349Z,6.07
2018-05-21T05:35:55.856Z,4.30
2018-05-21T05:38:23.276Z,5.30
2018-05-21T05:40:50.720Z,5.63
2018-05-21T05:43:18.993Z,4.30
2018-05-21T05:45:47.214Z,6.57
2018-05-21T05:48:14.665Z,6.20
2018-05-21T05:50:42.231Z,4.47
2018-05-21T05:53:10.460Z,4.60
2018-05-21T05:55:37.908Z,4.67
2018-05-21T05:58:05.377Z,4.83
2018-05-21T06:00:32.812Z,5.43
2018-05-21T06:03:01.036Z,4.50
2018-05-21T06:05:28.481Z,4.50
2018-05-21T06:07:56.687Z,4.97
2018-05-21T06:10:24.152Z,6.30
2018-05-21T06:12:51.592Z,4.00
2018-05-21T06:15:19.916Z,4.70
2018-05-21T06:17:47.376Z,5.73
2018-05-21T06:20:14.827Z,4.70
2018-05-21T06:22:43.045Z,4.90
2018-05-21T06:25:10.497Z,7.60
2018-05-21T06:27:37.940Z,5.00
2018-05-21T06:30:06.164Z,5.80
2018-05-21T06:32:33.617Z,5.30
2018-05-21T06:35:01.073Z,5.17
2018-05-21T06:37:29.282Z,6.73
2018-05-21T06:39:56.739Z,6.03
2018-05-21T06:42:24.939Z,6.70
2018-05-21T06:44:52.405Z,6.03
2018-05-21T06:47:19.863Z,5.37
2018-05-21T06:49:47.324Z,6.10
2018-05-21T06:52:15.552Z,6.97
2018-05-21T06:54:43.007Z,6.27
2018-05-21T06:57:10.447Z,5.83
2018-05-21T06:59:38.659Z,6.13
2018-05-21T07:02:06.104Z,6.03
2018-05-21T07:04:34.324Z,7.13
2018-05-21T07:07:01.769Z,6.17
2018-05-21T07:09:29.237Z,5.93
2018-05-21T07:11:57.435Z,6.67
2018-05-21T07:14:24.892Z,5.73
2018-05-21T07:16:52.346Z,7.10
2018-05-21T07:19:20.553Z,7.17
2018-05-21T07:21:48.017Z,5.73
2018-05-21T07:24:16.256Z,6.17
2018-05-21T07:26:43.713Z,6.60
2018-05-21T07:29:11.173Z,6.67
2018-05-21T07:31:38.632Z,5.77
2018-05-21T07:34:06.072Z,8.07
2018-05-21T07:36:34.297Z,6.43
2018-05-21T07:39:01.762Z,8.50
2018-05-21T07:41:29.214Z,6.03
2018-05-21T07:43:56.800Z,6.00
2018-05-21T07:46:24.277Z,5.60
2018-05-21T07:48:51.720Z,5.93
2018-05-21T07:51:19.257Z,6.20
2018-05-21T07:53:46.627Z,5.60
2018-05-21T07:56:14.865Z,7.20
2018-05-21T07:58:42.313Z,7.63
2018-05-21T08:01:09.791Z,6.87
2018-05-21T08:03:37.241Z,6.27
2018-05-21T08:06:05.534Z,6.90
2018-05-21T08:08:32.975Z,6.10
2018-05-21T08:11:01.201Z,8.07
2018-05-21T08:13:28.639Z,8.63
2018-05-21T08:15:56.864Z,8.67
2018-05-21T08:18:24.303Z,6.07
2018-05-21T08:20:52.530Z,6.67
2018-05-21T08:23:19.973Z,5.57
2018-05-21T08:25:47.415Z,5.33
2018-05-21T08:28:15.640Z,8.17
2018-05-21T08:30:43.250Z,5.47
2018-05-21T08:33:10.700Z,6.60
2018-05-21T08:35:38.136Z,5.60
2018-05-21T08:38:05.698Z,5.83
2018-05-21T08:40:33.904Z,7.43
2018-05-21T08:43:01.371Z,7.20
2018-05-21T08:45:28.827Z,6.13
2018-05-21T08:47:56.289Z,6.67
2018-05-21T08:50:24.516Z,5.93
2018-05-21T08:52:51.971Z,6.93
2018-05-21T08:55:19.506Z,7.20
2018-05-21T08:57:46.929Z,6.33
2018-05-21T09:00:14.367Z,6.03
2018-05-21T09:02:41.833Z,8.63
2018-05-21T09:05:09.286Z,8.30
2018-05-21T09:07:37.528Z,5.97
2018-05-21T09:10:05.046Z,6.13
2018-05-21T09:12:32.547Z,6.87
2018-05-21T09:14:59.904Z,6.83
2018-05-21T09:17:27.388Z,8.93
2018-05-21T09:19:55.046Z,6.40
2018-05-21T09:22:22.509Z,8.83
2018-05-21T09:24:49.969Z,6.93
2018-05-21T09:27:17.408Z,9.40
2018-05-21T09:29:44.865Z,6.30
2018-05-21T09:32:12.321Z,6.27
2018-05-21T09:34:39.961Z,7.67
2018-05-21T09:37:07.401Z,5.97
2018-05-21T09:39:35.627Z,6.60
2018-05-21T09:42:03.099Z,6.60
2018-05-21T09:44:31.387Z,6.40
2018-05-21T09:46:58.827Z,5.93
2018-05-21T09:49:26.306Z,6.03
2018-05-21T09:51:53.743Z,6.27
2018-05-21T09:54:21.970Z,5.33
2018-05-21T09:56:49.420Z,5.70
2018-05-21T09:59:16.880Z,5.23
2018-05-21T10:01:44.377Z,5.97
2018-05-21T10:04:11.832Z,5.80
2018-05-21T10:06:39.272Z,6.07
2018-05-21T10:09:06.736Z,7.50
2018-05-21T10:11:34.185Z,6.00
2018-05-21T10:14:01.674Z,5.87
2018-05-21T10:16:29.099Z,5.90
2018-05-21T10:18:56.553Z,10.70
2018-05-21T10:21:23.996Z,6.93
2018-05-21T10:23:52.216Z,5.90
2018-05-21T10:26:19.664Z,6.10
2018-05-21T10:28:47.240Z,5.90
2018-05-21T10:31:14.679Z,6.07
2018-05-21T10:33:42.136Z,6.80
2018-05-21T10:36:09.584Z,5.90
2018-05-21T10:38:37.036Z,5.97
2018-05-21T10:41:04.490Z,5.27
2018-05-21T10:43:31.940Z,5.40
2018-05-21T10:46:00.160Z,6.00
2018-05-21T10:48:27.611Z,5.83
2018-05-21T10:50:55.065Z,6.60
2018-05-21T10:53:23.288Z,5.07
2018-05-21T10:55:50.739Z,5.63
2018-05-21T10:58:18.192Z,7.10
2018-05-21T11:00:46.539Z,5.67
2018-05-21T11:03:13.993Z,5.17
2018-05-21T11:05:41.432Z,7.10
2018-05-21T11:08:09.190Z,6.57
2018-05-21T11:10:37.396Z,5.17
2018-05-21T11:13:04.834Z,5.00
2018-05-21T11:15:33.052Z,7.97
2018-05-21T11:18:00.569Z,6.90
2018-05-21T11:20:28.824Z,5.97
2018-05-21T11:22:56.269Z,5.60
2018-05-21T11:25:23.726Z,6.27
2018-05-21T11:27:51.928Z,5.60
2018-05-21T11:30:19.379Z,6.37
2018-05-21T11:32:47.594Z,8.53
2018-05-21T11:35:15.049Z,6.00
2018-05-21T11:37:42.487Z,5.13
2018-05-21T11:40:09.945Z,6.03
2018-05-21T11:42:37.387Z,5.40
2018-05-21T11:45:04.850Z,6.47
2018-05-21T11:47:32.305Z,6.60
2018-05-21T11:49:59.761Z,5.80
2018-05-21T11:52:27.210Z,5.40
2018-05-21T11:54:55.423Z,5.93
2018-05-21T11:57:22.875Z,5.13
2018-05-21T11:59:51.106Z,5.30
2018-05-21T12:02:18.543Z,6.13
2018-05-21T12:04:46.008Z,10.97
2018-05-21T12:07:14.213Z,5.60
2018-05-21T12:09:41.725Z,5.70
2018-05-21T12:12:09.148Z,6.47
2018-05-21T12:14:36.607Z,6.60
2018-05-21T12:17:04.051Z,6.67
2018-05-21T12:19:32.267Z,5.80
2018-05-21T12:21:59.712Z,6.63
2018-05-21T12:24:27.989Z,6.00
2018-05-21T12:26:55.461Z,5.80
2018-05-21T12:29:23.684Z,5.63
2018-05-21T12:31:51.234Z,6.60
2018-05-21T12:34:19.440Z,8.23
2018-05-21T12:36:46.892Z,6.50
2018-05-21T12:39:14.367Z,5.90
2018-05-21T12:41:41.804Z,5.70
2018-05-21T12:44:09.325Z,7.67
2018-05-21T12:46:36.751Z,5.87
2018-05-21T12:49:05.022Z,5.90
2018-05-21T12:51:32.548Z,5.23
2018-05-21T12:54:00.009Z,5.60
2018-05-21T12:56:27.485Z,6.00
2018-05-21T12:58:54.988Z,6.10
2018-05-21T13:01:22.437Z,6.03
2018-05-21T13:03:49.892Z,5.30
2018-05-21T13:06:17.340Z,5.90
2018-05-21T13:08:45.556Z,5.93
2018-05-21T13:11:13.077Z,6.17
2018-05-21T13:13:40.520Z,8.13
2018-05-21T13:16:07.980Z,11.70
2018-05-21T13:18:35.419Z,5.77
2018-05-21T13:21:03.003Z,5.80
2018-05-21T13:23:30.453Z,8.27
2018-05-21T13:25:57.917Z,5.30
2018-05-21T13:28:25.367Z,7.30
2018-05-21T13:30:53.580Z,6.00
2018-05-21T13:33:21.019Z,5.20
2018-05-21T13:35:49.252Z,5.27
2018-05-21T13:38:16.691Z,5.60
2018-05-21T13:40:44.156Z,6.00
2018-05-21T13:43:11.672Z,6.40
2018-05-21T13:45:39.064Z,8.20
2018-05-21T13:48:06.504Z,5.27
2018-05-21T13:50:33.955Z,9.27
2018-05-21T13:53:01.418Z,5.37
2018-05-21T13:55:29.625Z,5.73
2018-05-21T13:57:57.114Z,6.00
2018-05-21T14:00:24.556Z,5.37
2018-05-21T14:02:52.011Z,5.40
2018-05-21T14:05:19.483Z,5.73
2018-05-21T14:07:46.932Z,5.47
2018-05-21T14:10:14.387Z,5.30
2018-05-21T14:12:42.605Z,5.90
2018-05-21T14:15:10.097Z,5.93
2018-05-21T14:17:37.540Z,6.00
2018-05-21T14:20:05.009Z,6.70
2018-05-21T14:22:32.494Z,5.40
2018-05-21T14:24:59.965Z,5.60
2018-05-21T14:27:27.421Z,5.83
2018-05-21T14:29:54.922Z,5.90
2018-05-21T14:32:22.328Z,8.17
2018-05-21T14:34:50.605Z,5.90
2018-05-21T14:37:18.051Z,8.73
2018-05-21T14:39:45.516Z,6.23
2018-05-21T14:42:12.972Z,5.30
2018-05-21T14:44:40.430Z,5.60
2018-05-21T14:47:07.876Z,6.00
2018-05-21T14:49:35.361Z,7.13
2018-05-21T14:52:02.824Z,6.00
2018-05-21T14:54:30.271Z,5.93
2018-05-21T14:56:58.505Z,5.40
2018-05-21T14:59:25.992Z,5.23
2018-05-21T15:01:53.437Z,5.20
2018-05-21T15:04:20.895Z,6.30
2018-05-21T15:06:48.355Z,5.80
2018-05-21T15:09:15.841Z,5.80
2018-05-21T15:11:43.289Z,5.73
2018-05-21T15:14:10.927Z,5.47
2018-05-21T15:16:38.458Z,5.83
2018-05-21T15:19:05.918Z,6.80
2018-05-21T15:21:33.387Z,6.40
2018-05-21T15:24:00.824Z,5.23
2018-05-21T15:26:29.230Z,6.37
2018-05-21T15:28:56.768Z,6.00
2018-05-21T15:31:24.983Z,6.70
2018-05-21T15:33:52.429Z,5.50
2018-05-21T15:36:20.656Z,5.50
2018-05-21T15:38:48.134Z,5.10
2018-05-21T15:41:15.807Z,6.27
2018-05-21T15:43:43.280Z,5.47
2018-05-21T15:46:10.929Z,5.87
2018-05-21T15:48:39.596Z,5.67
2018-05-21T15:51:07.255Z,5.77
2018-05-21T15:53:34.709Z,6.50
2018-05-21T15:56:02.180Z,5.90
2018-05-21T15:58:29.636Z,5.50
2018-05-21T16:00:57.087Z,6.37
2018-05-21T16:03:24.531Z,5.23
2018-05-21T16:05:51.986Z,6.00
2018-05-21T16:08:20.201Z,5.83
2018-05-21T16:10:47.657Z,5.77
2018-05-21T16:13:15.158Z,5.53
2018-05-21T16:15:42.616Z,5.70
2018-05-21T16:18:10.060Z,5.23
2018-05-21T16:20:38.297Z,5.50
2018-05-21T16:23:05.753Z,5.37
2018-05-21T16:25:33.213Z,6.17
2018-05-21T16:28:00.668Z,7.30
2018-05-21T16:30:28.119Z,5.27
2018-05-21T16:32:56.329Z,11.50
2018-05-21T16:35:23.864Z,5.80
2018-05-21T16:37:51.264Z,5.33
2018-05-21T16:40:18.729Z,5.50
2018-05-21T16:42:46.171Z,5.87
2018-05-21T16:45:14.406Z,7.23
2018-05-21T16:47:41.859Z,6.27
2018-05-21T16:50:09.309Z,12.00
2018-05-21T16:52:37.525Z,16.10
2018-05-21T16:55:04.980Z,5.63
2018-05-21T16:57:32.455Z,6.07
2018-05-21T16:59:59.929Z,7.53
2018-05-21T17:02:27.356Z,6.20
2018-05-21T17:04:55.582Z,9.47
2018-05-21T17:07:23.047Z,11.57
2018-05-21T17:09:51.244Z,9.87
2018-05-21T17:12:18.688Z,11.00
2018-05-21T17:14:46.149Z,6.70
2018-05-21T17:17:14.351Z,5.00
2018-05-21T17:19:41.787Z,5.83
2018-05-21T17:22:10.012Z,6.13
2018-05-21T17:24:37.461Z,4.90
2018-05-21T17:27:04.916Z,7.80
2018-05-21T17:29:33.132Z,6.77
2018-05-21T17:32:00.583Z,7.70
2018-05-21T17:34:28.032Z,5.00
2018-05-21T17:36:56.251Z,6.13
2018-05-21T17:39:23.708Z,7.60
2018-05-21T17:41:51.164Z,5.63
2018-05-21T17:44:19.376Z,6.67
2018-05-21T17:46:46.861Z,4.93
2018-05-21T17:49:14.517Z,5.43
2018-05-21T17:51:42.731Z,6.53
2018-05-21T17:54:10.173Z,5.30
2018-05-21T17:56:37.724Z,7.77
2018-05-21T17:59:05.941Z,11.37
2018-05-21T18:01:33.396Z,18.77
2018-05-21T18:04:00.857Z,7.70
2018-05-21T18:06:29.091Z,16.00
2018-05-21T18:08:56.516Z,9.33
2018-05-21T18:11:23.972Z,9.23
2018-05-21T18:13:52.184Z,8.17
2018-05-21T18:16:19.659Z,15.20
2018-05-21T18:18:47.216Z,15.80
2018-05-21T18:21:14.582Z,14.87
2018-05-21T18:23:42.036Z,9.30
2018-05-21T18:26:10.251Z,6.07
2018-05-21T18:28:37.699Z,10.33
2018-05-21T18:31:05.156Z,6.93
2018-05-21T18:33:33.626Z,14.37
2018-05-21T18:36:01.154Z,11.47
2018-05-21T18:38:28.628Z,12.00
2018-05-21T18:40:56.098Z,14.33
2018-05-21T18:43:23.557Z,9.13
2018-05-21T18:45:51.016Z,7.47
2018-05-21T18:48:18.467Z,8.43
2018-05-21T18:50:46.681Z,9.50
2018-05-21T18:53:14.145Z,7.23
2018-05-21T18:55:41.595Z,8.30
2018-05-21T18:58:09.808Z,8.50
2018-05-21T19:00:38.823Z,8.97
2018-05-21T19:03:06.272Z,8.37
2018-05-21T19:05:33.723Z,7.20
2018-05-21T19:08:01.937Z,10.73
2018-05-21T19:10:29.396Z,9.27
2018-05-21T19:12:56.841Z,7.50
2018-05-21T19:15:25.065Z,7.17
2018-05-21T19:17:52.506Z,8.93
2018-05-21T19:20:19.960Z,7.10
2018-05-21T19:22:48.172Z,6.73
2018-05-21T19:25:15.621Z,8.43
2018-05-21T19:27:43.846Z,8.53
2018-05-21T19:30:11.291Z,10.13
2018-05-21T19:32:38.753Z,9.23
2018-05-21T19:35:07.005Z,8.73
2018-05-21T19:37:34.440Z,9.47
2018-05-21T19:40:01.888Z,7.80
2018-05-21T19:42:29.350Z,8.27
2018-05-21T19:44:57.589Z,11.67
2018-05-21T19:47:25.095Z,7.07
2018-05-21T19:49:52.519Z,7.10
2018-05-21T19:52:19.975Z,6.97
2018-05-21T19:54:47.433Z,9.40
2018-05-21T19:57:14.891Z,9.80
2018-05-21T19:59:42.340Z,8.37
2018-05-21T20:02:10.560Z,5.77
2018-05-21T20:04:38.010Z,8.73
2018-05-21T20:07:05.461Z,6.27
2018-05-21T20:09:33.868Z,6.60
2018-05-21T20:12:02.085Z,8.10
2018-05-21T20:14:29.537Z,7.47
2018-05-21T20:16:57.008Z,8.10
2018-05-21T20:19:24.503Z,6.93
2018-05-21T20:21:51.933Z,7.20
2018-05-21T20:24:19.389Z,8.13
2018-05-21T20:26:47.604Z,6.87
2018-05-21T20:29:15.061Z,8.07
2018-05-21T20:31:42.508Z,9.50
2018-05-21T20:34:10.733Z,7.03
2018-05-21T20:40:09.148Z,6.70
2018-05-21T20:42:36.590Z,7.97
2018-05-21T20:45:04.812Z,7.47
2018-05-21T20:47:32.251Z,7.77
2018-05-21T20:50:00.466Z,7.70
2018-05-21T20:52:27.923Z,7.33
2018-05-21T20:54:55.393Z,7.40
2018-05-21T20:57:22.841Z,7.30
2018-05-21T20:59:51.072Z,7.17
2018-05-21T21:02:18.545Z,9.83
2018-05-21T21:04:45.967Z,7.40
2018-05-21T21:07:14.307Z,6.90
2018-05-21T21:09:41.763Z,6.97
2018-05-21T21:12:09.208Z,7.33
2018-05-21T21:14:36.669Z,7.73
2018-05-21T21:17:04.885Z,7.40
2018-05-21T21:19:32.344Z,9.77
2018-05-21T21:21:59.787Z,8.97
2018-05-21T21:24:28.013Z,8.53
2018-05-21T21:26:55.462Z,8.03
2018-05-21T21:29:22.933Z,7.23
2018-05-21T21:31:50.379Z,8.17
2018-05-21T21:34:18.593Z,8.37
2018-05-21T21:36:46.060Z,9.90
2018-05-21T21:39:13.509Z,11.13
2018-05-21T21:41:41.727Z,7.60
2018-05-21T21:44:09.178Z,8.83
2018-05-21T21:46:36.628Z,8.77
2018-05-21T21:49:04.869Z,8.17
2018-05-21T21:51:32.478Z,8.63
2018-05-21T21:53:59.856Z,8.00
2018-05-21T21:56:28.366Z,8.17
2018-05-21T21:58:56.582Z,7.60
2018-05-21T22:01:24.021Z,8.17
2018-05-21T22:03:51.460Z,8.80
2018-05-21T22:06:19.738Z,8.00
2018-05-21T22:08:47.961Z,9.43
2018-05-21T22:11:15.461Z,8.60
2018-05-21T22:13:42.901Z,9.80
2018-05-21T22:16:10.360Z,8.97
2018-05-21T22:18:38.568Z,9.00
2018-05-21T22:21:06.031Z,9.00
2018-05-21T22:23:33.471Z,8.80
2018-05-21T22:26:01.683Z,9.47
2018-05-21T22:28:29.151Z,9.80
2018-05-21T22:30:56.613Z,10.77
2018-05-21T22:33:24.073Z,11.53
2018-05-21T22:35:52.296Z,10.93
2018-05-21T22:38:19.760Z,12.10
2018-05-21T22:40:47.204Z,12.10
2018-05-21T22:43:14.668Z,13.50
2018-05-21T22:45:42.888Z,12.40
2018-05-21T22:48:10.343Z,13.97
2018-05-21T22:50:37.799Z,15.70
2018-05-21T22:53:05.261Z,12.73
2018-05-21T22:55:32.712Z,11.70
2018-05-21T22:58:00.933Z,11.57
2018-05-21T23:00:28.387Z,11.63
2018-05-21T23:02:55.853Z,11.50
2018-05-21T23:05:24.189Z,11.90
2018-05-21T23:07:51.657Z,11.13
2018-05-21T23:10:19.105Z,11.83
2018-05-21T23:12:46.573Z,10.97
2018-05-21T23:15:14.063Z,11.00
2018-05-21T23:17:41.501Z,10.83
2018-05-21T23:20:08.943Z,9.50
2018-05-21T23:22:44.033Z,9.93
2018-05-21T23:25:11.481Z,9.80
2018-05-21T23:27:38.948Z,9.77
2018-05-21T23:30:06.391Z,9.50
2018-05-21T23:32:33.852Z,8.97
2018-05-21T23:35:01.292Z,10.27
2018-05-21T23:37:28.735Z,9.07
2018-05-21T23:39:56.197Z,8.43
2018-05-21T23:42:23.648Z,8.17
2018-05-21T23:44:51.875Z,9.40
2018-05-21T23:47:19.318Z,9.70
2018-05-21T23:49:46.772Z,9.80
2018-05-21T23:52:14.987Z,9.23
2018-05-21T23:54:42.451Z,8.73
2018-05-21T23:57:09.892Z,9.40
2018-05-21T23:59:38.120Z,9.10
